Time;durP1;ratioP1;P1;durP2;ratioP2;P2;SDS_P1;SDS_P2;PMS_P1;PMS_P2;Temp;Humidity;BMP_temperature;BMP_pressure;BME280_temperature;BME280_humidity;BME280_pressure;Samples;Min_cycle;Max_cycle;Signal;HPM_P1;HPM_P2
2021/04/25 00:02:09;;;;;;;2.85;2.65;;;;;;;;;;5114983;28;20204;-40
2021/04/25 00:04:35;;;;;;;2.80;2.60;;;;;;;;;;5113552;28;20173;-40
2021/04/25 00:07:01;;;;;;;3.25;2.55;;;;;;;;;;5115765;28;20189;-40
2021/04/25 00:09:27;;;;;;;3.38;2.83;;;;;;;;;;5115568;28;20256;-40
2021/04/25 00:11:54;;;;;;;2.92;2.72;;;;;;;;;;5115031;28;20168;-40
2021/04/25 00:14:20;;;;;;;3.13;2.60;;;;;;;;;;5115260;28;20264;-40
2021/04/25 00:16:46;;;;;;;2.60;2.40;;;;;;;;;;5115457;28;20281;-40
2021/04/25 00:19:12;;;;;;;2.92;2.63;;;;;;;;;;5115195;28;20772;-40
2021/04/25 00:21:38;;;;;;;2.70;2.50;;;;;;;;;;5113278;28;20193;-40
2021/04/25 00:24:05;;;;;;;2.92;2.50;;;;;;;;;;5115149;28;20204;-40
2021/04/25 00:26:31;;;;;;;2.97;2.53;;;;;;;;;;5114939;28;20181;-40
2021/04/25 00:28:57;;;;;;;5.13;2.70;;;;;;;;;;5114850;28;20177;-40
2021/04/25 00:31:23;;;;;;;5.18;2.60;;;;;;;;;;5114295;28;20479;-40
2021/04/25 00:33:49;;;;;;;6.53;3.20;;;;;;;;;;5114466;28;20176;-40
2021/04/25 00:36:15;;;;;;;4.28;2.63;;;;;;;;;;5115041;28;20181;-40
2021/04/25 00:38:41;;;;;;;5.60;2.75;;;;;;;;;;5111750;28;20214;-40
2021/04/25 00:41:07;;;;;;;5.70;2.67;;;;;;;;;;5104941;28;20564;-40
2021/04/25 00:43:34;;;;;;;2.83;2.53;;;;;;;;;;5114868;28;20240;-40
2021/04/25 00:46:00;;;;;;;2.70;2.50;;;;;;;;;;5114499;28;20230;-40
2021/04/25 00:48:26;;;;;;;4.15;2.80;;;;;;;;;;5114827;28;20180;-40
2021/04/25 00:50:52;;;;;;;4.68;2.72;;;;;;;;;;5108081;28;20173;-40
2021/04/25 00:53:18;;;;;;;2.80;2.60;;;;;;;;;;5115336;28;20214;-40
2021/04/25 00:55:46;;;;;;;3.20;2.63;;;;;;;;;;5101673;28;20596;-41
2021/04/25 00:58:12;;;;;;;3.03;2.50;;;;;;;;;;5112343;28;20189;-40
2021/04/25 01:00:38;;;;;;;2.88;2.35;;;;;;;;;;5114444;28;20261;-40
2021/04/25 01:03:04;;;;;;;2.95;2.47;;;;;;;;;;5114171;28;20235;-40
2021/04/25 01:05:30;;;;;;;2.83;2.63;;;;;;;;;;5114589;28;20198;-40
2021/04/25 01:07:56;;;;;;;3.35;2.80;;;;;;;;;;5114487;28;20176;-40
2021/04/25 01:10:22;;;;;;;2.75;2.55;;;;;;;;;;5114471;28;20165;-40
2021/04/25 01:12:48;;;;;;;4.70;3.22;;;;;;;;;;5113897;28;20193;-40
2021/04/25 01:15:15;;;;;;;5.43;2.97;;;;;;;;;;5114545;28;20452;-40
2021/04/25 01:17:43;;;;;;;2.78;2.53;;;;;;;;;;5114693;28;20173;-40
2021/04/25 01:20:11;;;;;;;3.05;2.75;;;;;;;;;;5095922;28;20673;-40
2021/04/25 01:22:37;;;;;;;3.42;2.53;;;;;;;;;;5114056;28;20246;-40
2021/04/25 01:25:04;;;;;;;3.05;2.75;;;;;;;;;;5114435;28;20177;-40
2021/04/25 01:27:30;;;;;;;2.90;2.70;;;;;;;;;;5114653;28;20196;-40
2021/04/25 01:29:56;;;;;;;3.03;2.72;;;;;;;;;;5114316;28;20173;-40
2021/04/25 01:32:22;;;;;;;4.43;2.58;;;;;;;;;;5114022;28;20196;-40
2021/04/25 01:34:48;;;;;;;2.85;2.65;;;;;;;;;;5114234;28;20185;-40
2021/04/25 01:37:14;;;;;;;3.13;2.70;;;;;;;;;;5114481;28;20193;-40
2021/04/25 01:39:40;;;;;;;3.65;2.33;;;;;;;;;;5113715;28;20256;-40
2021/04/25 01:42:06;;;;;;;2.95;2.67;;;;;;;;;;5114110;28;20177;-40
2021/04/25 01:44:32;;;;;;;3.70;2.70;;;;;;;;;;5113966;28;20773;-40
2021/04/25 01:46:58;;;;;;;3.17;2.88;;;;;;;;;;5114398;28;20201;-41
2021/04/25 01:49:24;;;;;;;4.50;2.88;;;;;;;;;;5114309;28;20201;-40
2021/04/25 01:51:50;;;;;;;3.25;2.80;;;;;;;;;;5114094;28;20199;-40
2021/04/25 01:54:16;;;;;;;2.75;2.55;;;;;;;;;;5108072;28;20257;-40
2021/04/25 01:56:43;;;;;;;2.70;2.50;;;;;;;;;;5114361;28;20543;-40
2021/04/25 01:59:09;;;;;;;2.75;2.42;;;;;;;;;;5116376;28;20648;-40
2021/04/25 02:01:35;;;;;;;2.75;2.50;;;;;;;;;;5117543;28;20219;-40
2021/04/25 02:04:01;;;;;;;2.42;2.30;;;;;;;;;;5117678;28;20638;-40
2021/04/25 02:06:27;;;;;;;3.47;2.97;;;;;;;;;;5117626;28;20181;-40
2021/04/25 02:08:53;;;;;;;4.30;2.60;;;;;;;;;;5117064;28;20261;-40
2021/04/25 02:11:20;;;;;;;3.10;2.10;;;;;;;;;;5112669;28;21578;-40
2021/04/25 02:13:46;;;;;;;2.95;2.70;;;;;;;;;;5117643;28;20581;-40
2021/04/25 02:16:13;;;;;;;2.90;2.70;;;;;;;;;;5117782;28;20183;-40
2021/04/25 02:18:39;;;;;;;2.90;2.70;;;;;;;;;;5116151;28;20177;-40
2021/04/25 02:21:05;;;;;;;3.03;2.67;;;;;;;;;;5117017;28;20219;-40
2021/04/25 02:23:31;;;;;;;2.38;2.17;;;;;;;;;;5117549;28;20571;-40
2021/04/25 02:25:57;;;;;;;3.35;2.90;;;;;;;;;;5117264;28;20833;-40
2021/04/25 02:28:25;;;;;;;2.53;2.33;;;;;;;;;;5114972;28;20506;-40
2021/04/25 02:30:51;;;;;;;2.97;2.67;;;;;;;;;;5116281;28;20169;-40
2021/04/25 02:33:16;;;;;;;2.75;2.33;;;;;;;;;;5117393;28;20173;-40
2021/04/25 02:35:43;;;;;;;2.63;2.42;;;;;;;;;;5117015;28;20190;-40
2021/04/25 02:38:09;;;;;;;2.40;2.20;;;;;;;;;;5116792;28;20306;-40
2021/04/25 02:40:35;;;;;;;2.50;2.30;;;;;;;;;;5116642;28;20267;-40
2021/04/25 02:43:02;;;;;;;2.58;2.38;;;;;;;;;;5117032;28;20450;-40
2021/04/25 02:45:28;;;;;;;2.80;2.60;;;;;;;;;;5096959;28;20166;-40
2021/04/25 02:47:55;;;;;;;2.60;2.25;;;;;;;;;;5114985;28;20212;-40
2021/04/25 02:50:22;;;;;;;2.85;2.65;;;;;;;;;;5111678;28;20177;-40
2021/04/25 02:52:49;;;;;;;3.00;2.70;;;;;;;;;;5095601;28;20178;-40
2021/04/25 02:55:15;;;;;;;3.22;2.50;;;;;;;;;;5107613;28;20185;-40
2021/04/25 02:57:41;;;;;;;2.60;2.40;;;;;;;;;;5116926;28;20265;-40
2021/04/25 03:00:09;;;;;;;2.50;2.30;;;;;;;;;;5099743;28;20184;-40
2021/04/25 03:02:35;;;;;;;2.70;2.50;;;;;;;;;;5116148;28;20216;-40
2021/04/25 03:05:01;;;;;;;3.70;2.33;;;;;;;;;;5116250;28;20345;-40
2021/04/25 03:07:27;;;;;;;3.00;2.70;;;;;;;;;;5116586;28;20181;-40
2021/04/25 03:09:53;;;;;;;2.53;2.33;;;;;;;;;;5114057;28;20413;-40
2021/04/25 03:12:19;;;;;;;2.70;2.50;;;;;;;;;;5114684;28;20181;-40
2021/04/25 03:14:45;;;;;;;2.60;2.40;;;;;;;;;;5116723;28;20348;-40
2021/04/25 03:17:11;;;;;;;2.95;2.00;;;;;;;;;;5116582;28;20251;-40
2021/04/25 03:19:37;;;;;;;2.88;2.67;;;;;;;;;;5111680;28;20256;-40
2021/04/25 03:22:03;;;;;;;2.75;2.55;;;;;;;;;;5097217;28;20412;-40
2021/04/25 03:24:29;;;;;;;2.45;2.25;;;;;;;;;;5112572;28;20662;-40
2021/04/25 03:26:55;;;;;;;3.88;2.38;;;;;;;;;;5116225;28;20181;-40
2021/04/25 03:29:21;;;;;;;2.42;2.22;;;;;;;;;;5103540;28;20205;-40
2021/04/25 03:31:47;;;;;;;2.50;2.30;;;;;;;;;;5095370;28;20201;-40
2021/04/25 03:34:13;;;;;;;2.42;2.25;;;;;;;;;;5107428;28;20188;-40
2021/04/25 03:36:39;;;;;;;2.10;2.00;;;;;;;;;;5115885;28;20259;-40
2021/04/25 03:39:07;;;;;;;2.53;2.20;;;;;;;;;;5105866;28;20277;-40
2021/04/25 03:41:33;;;;;;;2.88;2.47;;;;;;;;;;5100485;28;20169;-40
2021/04/25 03:43:59;;;;;;;2.40;2.20;;;;;;;;;;5115871;28;20205;-40
2021/04/25 03:46:25;;;;;;;3.78;2.20;;;;;;;;;;5116135;28;20632;-40
2021/04/25 03:48:51;;;;;;;2.58;2.38;;;;;;;;;;5111522;28;20185;-40
2021/04/25 03:51:17;;;;;;;2.58;2.38;;;;;;;;;;5109372;28;20257;-40
2021/04/25 03:53:43;;;;;;;2.90;2.28;;;;;;;;;;5115643;28;20185;-40
2021/04/25 03:56:09;;;;;;;3.33;2.83;;;;;;;;;;5115904;28;20173;-40
2021/04/25 03:58:35;;;;;;;2.58;2.38;;;;;;;;;;5115587;28;20187;-40
2021/04/25 04:01:01;;;;;;;2.30;2.10;;;;;;;;;;5115247;28;20205;-40
2021/04/25 04:03:27;;;;;;;2.53;2.33;;;;;;;;;;5115266;28;20478;-40
2021/04/25 04:05:53;;;;;;;2.40;2.20;;;;;;;;;;5115492;28;20207;-40
2021/04/25 04:08:19;;;;;;;2.20;2.03;;;;;;;;;;5112472;28;20184;-40
2021/04/25 04:10:45;;;;;;;2.67;2.35;;;;;;;;;;5101898;28;20185;-40
2021/04/25 04:13:11;;;;;;;2.47;2.28;;;;;;;;;;5115509;28;20169;-40
2021/04/25 04:15:37;;;;;;;2.60;2.33;;;;;;;;;;5098123;28;20666;-40
2021/04/25 04:18:03;;;;;;;2.30;2.10;;;;;;;;;;5114109;28;20684;-40
2021/04/25 04:20:29;;;;;;;2.47;2.28;;;;;;;;;;5110453;28;20207;-40
2021/04/25 04:22:55;;;;;;;2.15;1.95;;;;;;;;;;5115333;28;20204;-40
2021/04/25 04:25:22;;;;;;;2.38;2.17;;;;;;;;;;5115521;28;20174;-40
2021/04/25 04:27:47;;;;;;;2.25;2.08;;;;;;;;;;5115145;28;20177;-40
2021/04/25 04:30:14;;;;;;;2.15;2.00;;;;;;;;;;5114609;28;20191;-40
2021/04/25 04:32:40;;;;;;;2.30;2.10;;;;;;;;;;5114173;28;20203;-40
2021/04/25 04:35:06;;;;;;;2.65;2.45;;;;;;;;;;5115114;28;20181;-40
2021/04/25 04:37:32;;;;;;;2.38;2.17;;;;;;;;;;5115124;28;20183;-40
2021/04/25 04:39:58;;;;;;;2.70;2.15;;;;;;;;;;5114283;28;20208;-40
2021/04/25 04:42:24;;;;;;;2.33;2.13;;;;;;;;;;5114614;28;20223;-40
2021/04/25 04:44:50;;;;;;;2.00;1.90;;;;;;;;;;5114517;28;20173;-40
2021/04/25 04:47:16;;;;;;;2.92;2.05;;;;;;;;;;5114974;28;20312;-40
2021/04/25 04:49:42;;;;;;;2.80;2.25;;;;;;;;;;5110221;28;20208;-40
2021/04/25 04:52:08;;;;;;;2.30;2.10;;;;;;;;;;5094280;28;20487;-40
2021/04/25 04:54:34;;;;;;;2.30;2.10;;;;;;;;;;5094973;28;20162;-40
2021/04/25 04:57:00;;;;;;;3.13;2.00;;;;;;;;;;5102634;28;20439;-40
2021/04/25 04:59:26;;;;;;;2.10;1.90;;;;;;;;;;5114122;28;20220;-40
2021/04/25 05:01:52;;;;;;;2.38;2.05;;;;;;;;;;5113968;28;20211;-40
2021/04/25 05:04:18;;;;;;;2.20;2.10;;;;;;;;;;5114305;28;20192;-40
2021/04/25 05:06:44;;;;;;;2.03;1.92;;;;;;;;;;5114638;28;20199;-40
2021/04/25 05:09:11;;;;;;;2.30;2.10;;;;;;;;;;5106424;28;20174;-40
2021/04/25 05:11:37;;;;;;;2.10;1.90;;;;;;;;;;5094171;28;20648;-40
2021/04/25 05:14:03;;;;;;;2.10;2.00;;;;;;;;;;5094301;28;20208;-40
2021/04/25 05:16:29;;;;;;;2.17;1.98;;;;;;;;;;5102944;28;20181;-40
2021/04/25 05:18:55;;;;;;;1.75;1.65;;;;;;;;;;5113967;28;20181;-40
2021/04/25 05:21:21;;;;;;;1.80;1.70;;;;;;;;;;5099471;28;20270;-40
2021/04/25 05:23:47;;;;;;;1.73;1.63;;;;;;;;;;5112789;28;20209;-40
2021/04/25 05:26:13;;;;;;;2.13;1.92;;;;;;;;;;5114651;28;20166;-40
2021/04/25 05:28:39;;;;;;;1.90;1.80;;;;;;;;;;5113995;28;20222;-40
2021/04/25 05:31:05;;;;;;;2.35;1.83;;;;;;;;;;5113732;28;20204;-40
2021/04/25 05:33:31;;;;;;;2.50;2.05;;;;;;;;;;5117721;28;20173;-40
2021/04/25 05:35:57;;;;;;;2.30;2.00;;;;;;;;;;5118633;28;20183;-40
2021/04/25 05:38:23;;;;;;;2.15;1.95;;;;;;;;;;5117140;28;20249;-40
2021/04/25 05:40:50;;;;;;;2.45;2.20;;;;;;;;;;5097829;28;20247;-40
2021/04/25 05:43:16;;;;;;;2.13;1.92;;;;;;;;;;5114750;28;20205;-40
2021/04/25 05:45:42;;;;;;;1.85;1.70;;;;;;;;;;5118403;28;20188;-40
2021/04/25 05:48:08;;;;;;;2.03;1.85;;;;;;;;;;5117482;28;20177;-40
2021/04/25 05:50:34;;;;;;;2.22;2.03;;;;;;;;;;5105539;28;20177;-40
2021/04/25 05:53:00;;;;;;;8.30;2.22;;;;;;;;;;5097983;28;20454;-40
2021/04/25 05:55:27;;;;;;;4.13;2.10;;;;;;;;;;5110452;28;20515;-40
2021/04/25 05:57:53;;;;;;;3.33;2.17;;;;;;;;;;5117625;28;20570;-40
2021/04/25 06:00:24;;;;;;;7.18;3.63;;;;;;;;;;5101068;28;20316;-40
2021/04/25 06:02:50;;;;;;;4.10;3.20;;;;;;;;;;5117380;28;20519;-40
2021/04/25 06:05:17;;;;;;;5.45;3.45;;;;;;;;;;5117225;28;20171;-40
2021/04/25 06:07:43;;;;;;;6.05;4.18;;;;;;;;;;5117795;28;20184;-40
2021/04/25 06:10:10;;;;;;;5.68;3.78;;;;;;;;;;5117445;28;20250;-40
2021/04/25 06:12:36;;;;;;;5.28;4.18;;;;;;;;;;5116791;28;20192;-40
2021/04/25 06:15:03;;;;;;;5.68;3.97;;;;;;;;;;5118008;28;20244;-40
2021/04/25 06:17:29;;;;;;;5.15;3.97;;;;;;;;;;5099301;28;20285;-40
2021/04/25 06:19:55;;;;;;;4.03;3.63;;;;;;;;;;5105947;28;20375;-40
2021/04/25 06:22:21;;;;;;;4.43;3.60;;;;;;;;;;5117232;28;20289;-40
2021/04/25 06:24:47;;;;;;;4.80;3.22;;;;;;;;;;5117800;28;20219;-40
2021/04/25 06:27:13;;;;;;;5.05;3.50;;;;;;;;;;5117122;28;20474;-40
2021/04/25 06:29:39;;;;;;;6.53;3.50;;;;;;;;;;5117018;28;20169;-40
2021/04/25 06:32:05;;;;;;;5.75;3.40;;;;;;;;;;5116951;28;20173;-40
2021/04/25 06:34:31;;;;;;;5.28;3.10;;;;;;;;;;5117201;28;20230;-40
2021/04/25 06:36:58;;;;;;;3.85;2.80;;;;;;;;;;5117402;28;20181;-40
2021/04/25 06:39:24;;;;;;;4.15;2.85;;;;;;;;;;5116435;28;20185;-38
2021/04/25 06:41:50;;;;;;;4.90;2.92;;;;;;;;;;5116822;28;20241;-42
2021/04/25 06:44:16;;;;;;;5.57;3.22;;;;;;;;;;5116156;28;20595;-39
2021/04/25 06:46:42;;;;;;;4.88;2.85;;;;;;;;;;5117005;28;20173;-39
2021/04/25 06:49:07;;;;;;;6.55;3.15;;;;;;;;;;5116627;28;20605;-39
2021/04/25 06:51:34;;;;;;;4.53;3.05;;;;;;;;;;5110044;28;20268;-40
2021/04/25 06:54:00;;;;;;;5.50;3.05;;;;;;;;;;5096788;28;20185;-40
2021/04/25 06:56:26;;;;;;;6.18;2.97;;;;;;;;;;5114374;28;20184;-44
2021/04/25 06:58:52;;;;;;;3.40;2.50;;;;;;;;;;5113678;28;20182;-39
2021/04/25 07:01:18;;;;;;;5.43;2.80;;;;;;;;;;5096215;28;20924;-39
2021/04/25 07:03:44;;;;;;;7.25;2.88;;;;;;;;;;5105112;28;20209;-39
2021/04/25 07:06:10;;;;;;;3.80;2.53;;;;;;;;;;5116804;28;20218;-40
2021/04/25 07:08:36;;;;;;;9.75;2.47;;;;;;;;;;5104873;28;20179;-39
2021/04/25 07:11:02;;;;;;;4.00;2.38;;;;;;;;;;5111063;28;20177;-41
2021/04/25 07:13:28;;;;;;;7.57;3.53;;;;;;;;;;5116317;28;20188;-40
2021/04/25 07:15:54;;;;;;;6.28;2.80;;;;;;;;;;5098832;28;20177;-40
2021/04/25 07:18:20;;;;;;;5.72;2.50;;;;;;;;;;5115994;28;20204;-39
2021/04/25 07:20:48;;;;;;;4.80;2.45;;;;;;;;;;5112423;28;20280;-41
2021/04/25 07:23:14;;;;;;;3.88;2.67;;;;;;;;;;5115989;28;20596;-40
2021/04/25 07:25:40;;;;;;;3.33;2.47;;;;;;;;;;5116378;28;20181;-43
2021/04/25 07:28:07;;;;;;;3.70;2.40;;;;;;;;;;5097987;28;20187;-41
2021/04/25 07:30:33;;;;;;;2.90;2.58;;;;;;;;;;5110585;28;20184;-42
2021/04/25 07:32:59;;;;;;;7.93;2.40;;;;;;;;;;5110052;28;20185;-42
2021/04/25 07:35:25;;;;;;;3.03;2.35;;;;;;;;;;5115670;28;20192;-42
2021/04/25 07:37:51;;;;;;;4.93;2.40;;;;;;;;;;5114408;28;20216;-42
2021/04/25 07:40:17;;;;;;;5.68;2.63;;;;;;;;;;5115413;28;20195;-41
2021/04/25 07:42:44;;;;;;;7.40;2.50;;;;;;;;;;5115527;28;20224;-41
2021/04/25 07:45:12;;;;;;;5.10;2.33;;;;;;;;;;5115329;28;20611;-41
2021/04/25 07:47:38;;;;;;;6.40;3.63;;;;;;;;;;5115701;28;20440;-41
2021/04/25 07:50:05;;;;;;;8.75;2.80;;;;;;;;;;5107028;28;20170;-41
2021/04/25 07:52:31;;;;;;;7.60;2.80;;;;;;;;;;5104930;28;20252;-41
2021/04/25 07:54:57;;;;;;;7.90;2.67;;;;;;;;;;5115690;28;20261;-41
2021/04/25 07:57:23;;;;;;;6.05;2.33;;;;;;;;;;5114689;28;20174;-41
2021/04/25 07:59:49;;;;;;;5.80;2.38;;;;;;;;;;5094775;28;20554;-41
2021/04/25 08:05:19;;;;;;;4.28;2.25;;;;;;;;;;5118383;28;20172;-40
2021/04/25 08:07:47;;;;;;;5.47;2.55;;;;;;;;;;5117864;28;20157;-41
2021/04/25 08:10:13;;;;;;;8.15;2.28;;;;;;;;;;5117981;28;20157;-41
2021/04/25 08:12:41;;;;;;;7.93;2.22;;;;;;;;;;5117519;28;20248;-41
2021/04/25 08:15:13;;;;;;;5.00;2.42;;;;;;;;;;5117975;28;20173;-41
2021/04/25 08:17:40;;;;;;;6.38;2.10;;;;;;;;;;5117937;28;20180;-41
2021/04/25 08:20:06;;;;;;;7.45;2.83;;;;;;;;;;5117620;28;20215;-41
2021/04/25 08:22:33;;;;;;;6.45;2.38;;;;;;;;;;5117591;28;20172;-41
2021/04/25 08:25:00;;;;;;;4.60;2.13;;;;;;;;;;5100336;28;20552;-41
2021/04/25 08:30:30;;;;;;;4.43;2.30;;;;;;;;;;5117559;28;20152;-41
2021/04/25 08:32:59;;;;;;;3.22;2.17;;;;;;;;;;5100174;28;20179;-41
2021/04/25 08:35:32;;;;;;;2.85;1.98;;;;;;;;;;5117878;28;20607;-41
2021/04/25 08:37:58;;;;;;;2.88;2.05;;;;;;;;;;5117744;28;20161;-41
2021/04/25 08:40:24;;;;;;;4.00;2.00;;;;;;;;;;5117333;28;20165;-40
2021/04/25 08:43:05;;;;;;;3.92;2.08;;;;;;;;;;5117308;28;20193;-41
2021/04/25 08:45:31;;;;;;;2.47;2.13;;;;;;;;;;5099908;28;20198;-41
2021/04/25 08:47:59;;;;;;;2.70;2.10;;;;;;;;;;5117343;28;20176;-41
2021/04/25 08:50:28;;;;;;;5.97;2.33;;;;;;;;;;5117292;28;20169;-41
2021/04/25 08:53:00;;;;;;;3.17;1.88;;;;;;;;;;5117301;28;20157;-41
2021/04/25 08:55:26;;;;;;;3.83;2.28;;;;;;;;;;5117469;28;20428;-41
2021/04/25 08:58:12;;;;;;;3.05;2.42;;;;;;;;;;5117428;28;20241;-41
2021/04/25 09:00:39;;;;;;;2.58;2.20;;;;;;;;;;5116936;28;20154;-41
2021/04/25 09:03:07;;;;;;;4.65;2.75;;;;;;;;;;5115002;28;20275;-41
2021/04/25 09:05:39;;;;;;;357.10;139.23;;;;;;;;;;5093423;28;20213;-41
2021/04/25 09:08:07;;;;;;;356.08;140.80;;;;;;;;;;5099661;28;20196;-41
2021/04/25 09:10:43;;;;;;;244.98;99.20;;;;;;;;;;5107250;28;20540;-41
2021/04/25 09:13:20;;;;;;;168.95;68.72;;;;;;;;;;5109324;28;20176;-41
2021/04/25 09:15:47;;;;;;;132.50;54.60;;;;;;;;;;5098171;28;20267;-41
2021/04/25 09:18:16;;;;;;;134.68;50.60;;;;;;;;;;5118043;28;20181;-41
2021/04/25 09:20:46;;;;;;;124.95;48.10;;;;;;;;;;5112790;28;20197;-41
2021/04/25 09:23:13;;;;;;;124.50;50.65;;;;;;;;;;5118136;28;20202;-41
2021/04/25 09:26:00;;;;;;;120.00;46.92;;;;;;;;;;5118486;28;20544;-41
2021/04/25 09:28:26;;;;;;;106.20;43.53;;;;;;;;;;5096127;28;20602;-41
2021/04/25 09:30:55;;;;;;;105.07;42.45;;;;;;;;;;5100040;28;20253;-41
2021/04/25 09:33:27;;;;;;;94.97;40.88;;;;;;;;;;5118214;28;20531;-41
2021/04/25 09:35:59;;;;;;;106.15;46.60;;;;;;;;;;5101027;28;20449;-40
2021/04/25 09:38:33;;;;;;;332.27;170.43;;;;;;;;;;5116281;28;20177;-41
2021/04/25 09:41:01;;;;;;;562.97;355.88;;;;;;;;;;5117692;28;20203;-43
2021/04/25 09:43:30;;;;;;;581.28;375.17;;;;;;;;;;5117885;28;20291;-41
2021/04/25 09:45:59;;;;;;;516.83;321.88;;;;;;;;;;5117752;28;20233;-41
2021/04/25 09:48:27;;;;;;;454.17;268.10;;;;;;;;;;5097964;28;20456;-41
2021/04/25 09:51:05;;;;;;;429.52;246.50;;;;;;;;;;5109350;28;20177;-41
2021/04/25 09:53:31;;;;;;;368.88;193.55;;;;;;;;;;5112938;28;20260;-41
2021/04/25 09:55:58;;;;;;;384.27;206.98;;;;;;;;;;5118082;28;20180;-41
2021/04/25 09:58:24;;;;;;;389.90;213.77;;;;;;;;;;5116677;28;20181;-41
2021/04/25 10:00:51;;;;;;;359.83;188.68;;;;;;;;;;5116352;28;20188;-41
2021/04/25 10:03:22;;;;;;;307.17;160.45;;;;;;;;;;5117690;28;20279;-41
2021/04/25 10:06:07;;;;;;;272.52;142.27;;;;;;;;;;5116952;28;20204;-41
2021/04/25 10:08:34;;;;;;;259.77;134.57;;;;;;;;;;5111471;28;20197;-41
2021/04/25 10:11:04;;;;;;;245.00;125.53;;;;;;;;;;5099835;28;20199;-41
2021/04/25 10:13:31;;;;;;;233.80;121.32;;;;;;;;;;5117284;28;20264;-41
2021/04/25 10:15:57;;;;;;;233.18;121.55;;;;;;;;;;5116777;28;20199;-41
2021/04/25 10:18:23;;;;;;;206.30;108.45;;;;;;;;;;5096774;28;20230;-41
2021/04/25 10:20:50;;;;;;;204.38;105.05;;;;;;;;;;5114473;28;20188;-41
2021/04/25 10:23:16;;;;;;;199.80;100.72;;;;;;;;;;5117701;28;20228;-41
2021/04/25 10:25:43;;;;;;;188.63;97.00;;;;;;;;;;5099812;28;20177;-40
2021/04/25 10:28:11;;;;;;;163.88;87.55;;;;;;;;;;5098612;28;20180;-41
2021/04/25 10:30:38;;;;;;;151.85;80.47;;;;;;;;;;5113345;28;20453;-41
2021/04/25 10:33:05;;;;;;;157.40;81.88;;;;;;;;;;5116409;28;20177;-41
2021/04/25 10:35:33;;;;;;;152.73;75.40;;;;;;;;;;5117472;28;20444;-40
2021/04/25 10:38:00;;;;;;;136.68;72.63;;;;;;;;;;5101542;28;20178;-40
2021/04/25 10:40:32;;;;;;;126.47;68.60;;;;;;;;;;5094756;28;20209;-40
2021/04/25 10:43:02;;;;;;;127.78;64.80;;;;;;;;;;5116382;28;20243;-40
2021/04/25 10:45:30;;;;;;;125.82;60.97;;;;;;;;;;5096810;28;20170;-41
2021/04/25 10:48:15;;;;;;;112.60;59.97;;;;;;;;;;5112304;28;20210;-40
2021/04/25 10:50:42;;;;;;;113.45;57.65;;;;;;;;;;5116644;28;20298;-41
2021/04/25 10:53:28;;;;;;;113.50;58.20;;;;;;;;;;5110999;28;20209;-40
2021/04/25 10:56:16;;;;;;;107.50;54.45;;;;;;;;;;5112822;28;20172;-41
2021/04/25 10:58:42;;;;;;;102.95;52.55;;;;;;;;;;5105011;28;20187;-41
2021/04/25 11:01:09;;;;;;;99.20;51.13;;;;;;;;;;5116447;28;20190;-41
2021/04/25 11:03:37;;;;;;;101.00;51.25;;;;;;;;;;5115118;28;20203;-41
2021/04/25 11:06:03;;;;;;;95.03;50.28;;;;;;;;;;5106088;28;20260;-41
2021/04/25 11:08:29;;;;;;;86.88;46.35;;;;;;;;;;5116053;28;20228;-41
2021/04/25 11:10:57;;;;;;;83.00;45.08;;;;;;;;;;5116199;28;20169;-41
2021/04/25 11:13:44;;;;;;;79.72;43.28;;;;;;;;;;5116125;28;20493;-41
2021/04/25 11:16:16;;;;;;;80.05;43.25;;;;;;;;;;5116811;28;20191;-41
2021/04/25 11:18:44;;;;;;;79.00;42.25;;;;;;;;;;5102650;28;20173;-41
2021/04/25 11:24:16;;;;;;;67.90;38.97;;;;;;;;;;5116048;28;20602;-41
2021/04/25 11:26:43;;;;;;;72.13;39.20;;;;;;;;;;5097047;28;20444;-41
2021/04/25 11:29:12;;;;;;;61.30;36.05;;;;;;;;;;5098615;28;20230;-41
2021/04/25 11:36:55;;;;;;;59.60;34.55;;;;;;;;;;5116132;28;20180;-40
2021/04/25 11:39:23;;;;;;;59.67;33.17;;;;;;;;;;5115797;28;20208;-41
2021/04/25 11:41:50;;;;;;;60.88;33.70;;;;;;;;;;5097357;28;20173;-41
2021/04/25 11:44:26;;;;;;;55.70;32.83;;;;;;;;;;5110193;28;20228;-40
2021/04/25 11:46:52;;;;;;;51.53;31.13;;;;;;;;;;5105074;28;20177;-41
2021/04/25 11:49:28;;;;;;;51.58;30.52;;;;;;;;;;5115845;28;20169;-40
2021/04/25 11:52:14;;;;;;;51.60;29.30;;;;;;;;;;5115577;28;20172;-40
2021/04/25 11:54:41;;;;;;;43.55;25.95;;;;;;;;;;5109014;28;20195;-40
2021/04/25 11:57:08;;;;;;;40.63;24.55;;;;;;;;;;5097707;28;20238;-41
2021/04/25 11:59:34;;;;;;;37.80;22.05;;;;;;;;;;5115848;28;20205;-40
2021/04/25 12:02:10;;;;;;;38.67;22.38;;;;;;;;;;5115157;28;20205;-40
2021/04/25 12:05:02;;;;;;;37.08;22.10;;;;;;;;;;5087596;28;20510;-41
2021/04/25 12:07:32;;;;;;;38.55;22.92;;;;;;;;;;5106636;28;20193;-41
2021/04/25 12:09:58;;;;;;;35.45;19.77;;;;;;;;;;5115608;28;20173;-40
2021/04/25 12:12:24;;;;;;;35.08;20.70;;;;;;;;;;5115056;28;20173;-41
2021/04/25 12:15:15;;;;;;;34.22;19.70;;;;;;;;;;5106112;28;20215;-41
2021/04/25 12:18:00;;;;;;;30.80;18.23;;;;;;;;;;5098052;28;20464;-41
2021/04/25 12:20:27;;;;;;;30.30;17.63;;;;;;;;;;5096788;28;20237;-41
2021/04/25 12:22:53;;;;;;;29.58;17.05;;;;;;;;;;5115315;28;20223;-40
2021/04/25 12:25:20;;;;;;;31.55;16.80;;;;;;;;;;5104289;28;20174;-41
2021/04/25 12:27:49;;;;;;;28.88;16.50;;;;;;;;;;5115266;28;20783;-40
2021/04/25 12:30:16;;;;;;;23.55;16.05;;;;;;;;;;5095973;28;20536;-40
2021/04/25 12:32:42;;;;;;;23.92;14.00;;;;;;;;;;5092997;28;20174;-40
2021/04/25 12:35:08;;;;;;;21.08;14.38;;;;;;;;;;5111112;28;20444;-41
2021/04/25 12:37:40;;;;;;;22.98;13.43;;;;;;;;;;5108471;28;20169;-41
2021/04/25 12:40:25;;;;;;;20.42;12.98;;;;;;;;;;5115092;28;20165;-40
2021/04/25 12:43:08;;;;;;;23.27;13.50;;;;;;;;;;5114374;28;20647;-41
2021/04/25 12:45:34;;;;;;;19.85;12.57;;;;;;;;;;5107963;28;20178;-41
2021/04/25 12:48:20;;;;;;;18.17;11.43;;;;;;;;;;5115090;28;20161;-41
2021/04/25 12:51:05;;;;;;;19.50;12.15;;;;;;;;;;5106059;28;20184;-40
2021/04/25 12:53:32;;;;;;;19.80;11.70;;;;;;;;;;5114737;28;20197;-40
2021/04/25 12:56:16;;;;;;;22.20;11.88;;;;;;;;;;5101791;28;20544;-40
2021/04/25 12:58:56;;;;;;;21.63;12.10;;;;;;;;;;5114278;28;20185;-41
2021/04/25 13:01:22;;;;;;;18.38;11.38;;;;;;;;;;5113701;28;20275;-41
2021/04/25 13:03:50;;;;;;;16.33;11.05;;;;;;;;;;5110086;28;20287;-41
2021/04/25 13:06:29;;;;;;;18.85;11.60;;;;;;;;;;5114867;28;20184;-40
2021/04/25 13:08:55;;;;;;;17.90;11.13;;;;;;;;;;5114976;28;20210;-40
2021/04/25 13:11:37;;;;;;;17.67;10.73;;;;;;;;;;5114215;28;20195;-41
2021/04/25 13:14:13;;;;;;;15.77;10.13;;;;;;;;;;5107785;28;20294;-40
2021/04/25 13:16:40;;;;;;;15.32;9.98;;;;;;;;;;5114958;28;20173;-40
2021/04/25 13:19:07;;;;;;;17.38;10.05;;;;;;;;;;5114532;28;20177;-41
2021/04/25 13:21:41;;;;;;;17.27;9.80;;;;;;;;;;5114247;28;20181;-40
2021/04/25 13:24:08;;;;;;;19.25;10.40;;;;;;;;;;5114250;28;20550;-40
2021/04/25 13:26:34;;;;;;;16.48;8.85;;;;;;;;;;5114825;28;20701;-41
2021/04/25 13:29:00;;;;;;;13.82;9.15;;;;;;;;;;5114566;28;20174;-40
2021/04/25 13:31:26;;;;;;;18.45;9.32;;;;;;;;;;5114430;28;20176;-40
2021/04/25 13:33:52;;;;;;;14.80;9.82;;;;;;;;;;5110874;28;20258;-41
2021/04/25 13:36:18;;;;;;;15.57;8.88;;;;;;;;;;5113296;28;20272;-40
2021/04/25 13:38:44;;;;;;;14.20;9.63;;;;;;;;;;5113728;28;20178;-40
2021/04/25 13:41:10;;;;;;;12.23;7.93;;;;;;;;;;5113937;28;20173;-41
2021/04/25 13:43:36;;;;;;;14.88;8.63;;;;;;;;;;5104959;28;20389;-40
2021/04/25 13:46:02;;;;;;;19.70;8.48;;;;;;;;;;5114246;28;20630;-41
2021/04/25 13:48:28;;;;;;;28.70;9.05;;;;;;;;;;5113755;28;20212;-40
2021/04/25 13:50:54;;;;;;;18.33;8.85;;;;;;;;;;5113338;28;20189;-41
2021/04/25 13:53:20;;;;;;;31.83;11.30;;;;;;;;;;5115646;28;20184;-40
2021/04/25 13:55:46;;;;;;;35.58;10.77;;;;;;;;;;5117904;28;20191;-40
2021/04/25 13:58:12;;;;;;;26.05;9.25;;;;;;;;;;5117523;28;20181;-40
2021/04/25 14:00:38;;;;;;;58.72;17.23;;;;;;;;;;5117753;28;20168;-41
2021/04/25 14:03:06;;;;;;;104.82;24.80;;;;;;;;;;5116460;28;20204;-41
2021/04/25 14:05:32;;;;;;;100.60;25.15;;;;;;;;;;5117304;28;20173;-40
2021/04/25 14:07:58;;;;;;;84.93;21.95;;;;;;;;;;5116075;28;20249;-40
2021/04/25 14:10:26;;;;;;;90.40;25.50;;;;;;;;;;5117308;28;20177;-41
2021/04/25 14:12:52;;;;;;;91.57;23.92;;;;;;;;;;5117855;28;20169;-41
2021/04/25 14:15:19;;;;;;;83.60;24.35;;;;;;;;;;5117915;28;20241;-41
2021/04/25 14:17:49;;;;;;;102.03;25.83;;;;;;;;;;5108848;28;20230;-40
2021/04/25 14:20:16;;;;;;;90.63;25.10;;;;;;;;;;5116970;28;20184;-41
2021/04/25 14:22:42;;;;;;;92.88;25.77;;;;;;;;;;5117347;28;20349;-41
2021/04/25 14:25:08;;;;;;;89.90;25.50;;;;;;;;;;5109847;28;20185;-41
2021/04/25 14:27:34;;;;;;;70.78;23.38;;;;;;;;;;5117118;28;20178;-41
2021/04/25 14:30:00;;;;;;;80.53;24.02;;;;;;;;;;5117489;28;20192;-41
2021/04/25 14:32:26;;;;;;;70.90;23.15;;;;;;;;;;5116711;28;20170;-40
2021/04/25 14:34:53;;;;;;;72.35;22.70;;;;;;;;;;5117248;28;20185;-40
2021/04/25 14:37:19;;;;;;;72.10;22.25;;;;;;;;;;5112817;28;20178;-41
2021/04/25 14:39:45;;;;;;;64.25;20.77;;;;;;;;;;5097378;28;20438;-40
2021/04/25 14:42:11;;;;;;;57.97;20.27;;;;;;;;;;5106151;28;20268;-41
2021/04/25 14:44:37;;;;;;;65.72;20.35;;;;;;;;;;5117187;28;20240;-40
2021/04/25 14:47:03;;;;;;;58.63;19.15;;;;;;;;;;5115986;28;20192;-41
2021/04/25 14:49:31;;;;;;;48.13;17.27;;;;;;;;;;5117000;28;20169;-40